sensor_id;sensor_type;location;lat;lon;timestamp;pressure;altitude;pressure_sealevel;temperature;humidity
74327;BME280;62745;51.060;13.786;2023-08-06T00:01:43;99422.03;;;16.14;100.00
74327;BME280;62745;51.060;13.786;2023-08-06T00:04:14;99412.44;;;16.02;100.00
74327;BME280;62745;51.060;13.786;2023-08-06T00:06:42;99346.94;;;15.79;100.00
74327;BME280;62745;51.060;13.786;2023-08-06T00:09:10;99344.47;;;15.78;100.00
74327;BME280;62745;51.060;13.786;2023-08-06T00:11:35;99362.09;;;15.85;100.00
74327;BME280;62745;51.060;13.786;2023-08-06T00:14:06;99317.09;;;15.64;100.00
74327;BME280;62745;51.060;13.786;2023-08-06T00:16:53;99361.28;;;15.85;100.00
74327;BME280;62745;51.060;13.786;2023-08-06T00:19:32;99318.16;;;15.63;100.00
74327;BME280;62745;51.060;13.786;2023-08-06T00:22:05;99327.13;;;15.69;100.00
74327;BME280;62745;51.060;13.786;2023-08-06T00:24:41;99347.31;;;15.88;100.00
74327;BME280;62745;51.060;13.786;2023-08-06T00:27:09;99302.59;;;15.65;100.00
74327;BME280;62745;51.060;13.786;2023-08-06T00:29:40;99320.38;;;15.66;100.00
74327;BME280;62745;51.060;13.786;2023-08-06T00:32:05;99336.84;;;15.91;100.00
74327;BME280;62745;51.060;13.786;2023-08-06T00:34:30;99334.41;;;15.90;100.00
74327;BME280;62745;51.060;13.786;2023-08-06T00:36:56;99361.25;;;16.02;100.00
74327;BME280;62745;51.060;13.786;2023-08-06T00:39:21;99303.72;;;15.69;100.00
74327;BME280;62745;51.060;13.786;2023-08-06T00:41:47;99354.91;;;15.91;100.00
74327;BME280;62745;51.060;13.786;2023-08-06T00:44:12;99345.63;;;15.82;100.00
74327;BME280;62745;51.060;13.786;2023-08-06T00:46:38;99360.84;;;15.93;100.00
74327;BME280;62745;51.060;13.786;2023-08-06T00:49:04;99342.75;;;15.88;100.00
74327;BME280;62745;51.060;13.786;2023-08-06T00:51:30;99347.56;;;15.86;100.00
74327;BME280;62745;51.060;13.786;2023-08-06T00:53:55;99317.88;;;15.81;100.00
74327;BME280;62745;51.060;13.786;2023-08-06T00:56:21;99315.03;;;15.71;100.00
74327;BME280;62745;51.060;13.786;2023-08-06T00:58:52;99318.34;;;15.78;100.00
74327;BME280;62745;51.060;13.786;2023-08-06T01:01:21;99293.69;;;15.64;100.00
74327;BME280;62745;51.060;13.786;2023-08-06T01:03:49;99325.00;;;15.92;100.00
74327;BME280;62745;51.060;13.786;2023-08-06T01:06:44;99346.97;;;16.01;100.00
74327;BME280;62745;51.060;13.786;2023-08-06T01:09:53;99273.03;;;15.53;100.00
74327;BME280;62745;51.060;13.786;2023-08-06T01:12:41;99320.31;;;15.83;100.00
74327;BME280;62745;51.060;13.786;2023-08-06T01:15:20;99314.84;;;15.78;100.00
74327;BME280;62745;51.060;13.786;2023-08-06T01:17:47;99310.63;;;15.82;100.00
74327;BME280;62745;51.060;13.786;2023-08-06T01:20:13;99318.19;;;15.85;100.00
74327;BME280;62745;51.060;13.786;2023-08-06T01:22:38;99315.88;;;15.93;100.00
74327;BME280;62745;51.060;13.786;2023-08-06T01:25:04;99302.97;;;15.95;100.00
74327;BME280;62745;51.060;13.786;2023-08-06T01:27:47;99304.63;;;15.97;100.00
74327;BME280;62745;51.060;13.786;2023-08-06T01:30:17;99307.53;;;15.95;100.00
74327;BME280;62745;51.060;13.786;2023-08-06T01:32:48;99282.63;;;15.83;100.00
74327;BME280;62745;51.060;13.786;2023-08-06T01:35:15;99286.75;;;15.90;100.00
74327;BME280;62745;51.060;13.786;2023-08-06T01:37:42;99289.63;;;15.84;100.00
74327;BME280;62745;51.060;13.786;2023-08-06T01:40:12;99291.75;;;15.82;100.00
74327;BME280;62745;51.060;13.786;2023-08-06T01:42:38;99289.50;;;15.74;100.00
74327;BME280;62745;51.060;13.786;2023-08-06T01:45:05;99287.25;;;15.66;100.00
74327;BME280;62745;51.060;13.786;2023-08-06T01:47:30;99286.25;;;15.55;100.00
74327;BME280;62745;51.060;13.786;2023-08-06T01:49:55;99284.06;;;15.52;100.00
74327;BME280;62745;51.060;13.786;2023-08-06T01:52:21;99287.16;;;15.44;100.00
74327;BME280;62745;51.060;13.786;2023-08-06T01:54:46;99281.13;;;15.37;100.00
74327;BME280;62745;51.060;13.786;2023-08-06T01:57:12;99285.72;;;15.36;100.00
74327;BME280;62745;51.060;13.786;2023-08-06T01:59:37;99288.66;;;15.34;100.00
74327;BME280;62745;51.060;13.786;2023-08-06T02:02:02;99275.75;;;15.37;100.00
74327;BME280;62745;51.060;13.786;2023-08-06T02:04:28;99284.09;;;15.35;100.00
74327;BME280;62745;51.060;13.786;2023-08-06T02:06:53;99273.06;;;15.37;100.00
74327;BME280;62745;51.060;13.786;2023-08-06T02:09:18;99279.97;;;15.49;100.00
74327;BME280;62745;51.060;13.786;2023-08-06T02:11:44;99286.19;;;15.50;100.00
74327;BME280;62745;51.060;13.786;2023-08-06T02:14:09;99300.13;;;15.63;100.00
74327;BME280;62745;51.060;13.786;2023-08-06T02:16:34;99298.50;;;15.62;100.00
74327;BME280;62745;51.060;13.786;2023-08-06T02:18:59;99298.81;;;15.66;100.00
74327;BME280;62745;51.060;13.786;2023-08-06T02:21:25;99285.88;;;15.63;100.00
74327;BME280;62745;51.060;13.786;2023-08-06T02:23:50;99292.63;;;15.66;100.00
74327;BME280;62745;51.060;13.786;2023-08-06T02:26:15;99293.25;;;15.73;100.00
74327;BME280;62745;51.060;13.786;2023-08-06T02:28:41;99290.31;;;15.74;100.00
74327;BME280;62745;51.060;13.786;2023-08-06T02:31:06;99288.97;;;15.77;100.00
74327;BME280;62745;51.060;13.786;2023-08-06T02:33:32;99274.09;;;15.69;100.00
74327;BME280;62745;51.060;13.786;2023-08-06T02:36:03;99281.66;;;15.72;100.00
74327;BME280;62745;51.060;13.786;2023-08-06T02:38:29;99282.72;;;15.71;100.00
74327;BME280;62745;51.060;13.786;2023-08-06T02:40:55;99285.16;;;15.73;100.00
74327;BME280;62745;51.060;13.786;2023-08-06T02:43:20;99272.09;;;15.81;100.00
74327;BME280;62745;51.060;13.786;2023-08-06T02:45:46;99271.59;;;15.84;100.00
74327;BME280;62745;51.060;13.786;2023-08-06T02:48:11;99265.97;;;15.86;100.00
74327;BME280;62745;51.060;13.786;2023-08-06T02:50:40;99263.00;;;15.87;100.00
74327;BME280;62745;51.060;13.786;2023-08-06T02:53:07;99259.75;;;15.85;100.00
74327;BME280;62745;51.060;13.786;2023-08-06T02:55:33;99254.75;;;15.72;100.00
74327;BME280;62745;51.060;13.786;2023-08-06T02:58:02;99264.31;;;15.85;100.00
74327;BME280;62745;51.060;13.786;2023-08-06T03:00:27;99258.56;;;15.76;100.00
74327;BME280;62745;51.060;13.786;2023-08-06T03:02:53;99256.19;;;15.80;100.00
74327;BME280;62745;51.060;13.786;2023-08-06T03:05:18;99257.44;;;15.72;100.00
74327;BME280;62745;51.060;13.786;2023-08-06T03:07:44;99246.66;;;15.72;100.00
74327;BME280;62745;51.060;13.786;2023-08-06T03:10:09;99251.53;;;15.75;100.00
74327;BME280;62745;51.060;13.786;2023-08-06T03:12:34;99247.22;;;15.74;100.00
74327;BME280;62745;51.060;13.786;2023-08-06T03:15:00;99241.31;;;15.77;100.00
74327;BME280;62745;51.060;13.786;2023-08-06T03:17:25;99242.72;;;15.80;100.00
74327;BME280;62745;51.060;13.786;2023-08-06T03:19:50;99233.06;;;15.84;100.00
74327;BME280;62745;51.060;13.786;2023-08-06T03:22:15;99231.28;;;15.94;100.00
74327;BME280;62745;51.060;13.786;2023-08-06T03:24:41;99233.63;;;15.86;100.00
74327;BME280;62745;51.060;13.786;2023-08-06T03:27:06;99217.34;;;15.76;100.00
74327;BME280;62745;51.060;13.786;2023-08-06T03:29:31;99226.06;;;15.83;100.00
74327;BME280;62745;51.060;13.786;2023-08-06T03:31:56;99224.09;;;15.78;100.00
74327;BME280;62745;51.060;13.786;2023-08-06T03:34:22;99216.63;;;15.80;100.00
74327;BME280;62745;51.060;13.786;2023-08-06T03:36:47;99208.97;;;15.72;100.00
74327;BME280;62745;51.060;13.786;2023-08-06T03:39:12;99206.56;;;15.76;100.00
74327;BME280;62745;51.060;13.786;2023-08-06T03:41:39;99199.56;;;15.75;100.00
74327;BME280;62745;51.060;13.786;2023-08-06T03:44:04;99189.00;;;15.68;100.00
74327;BME280;62745;51.060;13.786;2023-08-06T03:46:30;99211.69;;;15.77;100.00
74327;BME280;62745;51.060;13.786;2023-08-06T03:48:59;99199.88;;;15.78;100.00
74327;BME280;62745;51.060;13.786;2023-08-06T03:51:24;99193.50;;;15.84;100.00
74327;BME280;62745;51.060;13.786;2023-08-06T03:53:49;99197.25;;;15.83;100.00
74327;BME280;62745;51.060;13.786;2023-08-06T03:56:14;99190.94;;;15.73;100.00
74327;BME280;62745;51.060;13.786;2023-08-06T03:58:40;99192.28;;;15.75;100.00
74327;BME280;62745;51.060;13.786;2023-08-06T04:01:05;99186.91;;;15.75;100.00
74327;BME280;62745;51.060;13.786;2023-08-06T04:03:30;99182.78;;;15.68;100.00
74327;BME280;62745;51.060;13.786;2023-08-06T04:05:55;99172.06;;;15.73;100.00
74327;BME280;62745;51.060;13.786;2023-08-06T04:08:21;99160.69;;;15.66;100.00
74327;BME280;62745;51.060;13.786;2023-08-06T04:10:49;99172.63;;;15.75;100.00
74327;BME280;62745;51.060;13.786;2023-08-06T04:13:14;99167.81;;;15.77;100.00
74327;BME280;62745;51.060;13.786;2023-08-06T04:15:40;99164.16;;;15.88;100.00
74327;BME280;62745;51.060;13.786;2023-08-06T04:18:05;99154.25;;;15.67;100.00
74327;BME280;62745;51.060;13.786;2023-08-06T04:20:30;99161.13;;;15.79;100.00
74327;BME280;62745;51.060;13.786;2023-08-06T04:22:55;99159.69;;;15.72;100.00
74327;BME280;62745;51.060;13.786;2023-08-06T04:25:21;99155.66;;;15.74;100.00
74327;BME280;62745;51.060;13.786;2023-08-06T04:27:47;99153.47;;;15.71;100.00
74327;BME280;62745;51.060;13.786;2023-08-06T04:30:12;99155.66;;;15.74;100.00
74327;BME280;62745;51.060;13.786;2023-08-06T04:32:38;99145.53;;;15.81;100.00
74327;BME280;62745;51.060;13.786;2023-08-06T04:35:04;99143.19;;;15.90;100.00
74327;BME280;62745;51.060;13.786;2023-08-06T04:37:29;99141.25;;;15.85;100.00
74327;BME280;62745;51.060;13.786;2023-08-06T04:39:54;99138.53;;;15.80;100.00
74327;BME280;62745;51.060;13.786;2023-08-06T04:42:20;99132.38;;;15.85;100.00
74327;BME280;62745;51.060;13.786;2023-08-06T04:44:45;99137.28;;;15.93;100.00
74327;BME280;62745;51.060;13.786;2023-08-06T04:47:10;99138.06;;;15.88;100.00
74327;BME280;62745;51.060;13.786;2023-08-06T04:49:35;99137.22;;;15.88;100.00
74327;BME280;62745;51.060;13.786;2023-08-06T04:52:01;99138.06;;;15.88;100.00
74327;BME280;62745;51.060;13.786;2023-08-06T04:54:26;99133.50;;;15.94;100.00
74327;BME280;62745;51.060;13.786;2023-08-06T04:56:51;99119.75;;;15.90;100.00
74327;BME280;62745;51.060;13.786;2023-08-06T04:59:16;99126.84;;;15.97;100.00
74327;BME280;62745;51.060;13.786;2023-08-06T05:01:42;99126.25;;;15.94;100.00
74327;BME280;62745;51.060;13.786;2023-08-06T05:04:07;99127.56;;;15.92;100.00
74327;BME280;62745;51.060;13.786;2023-08-06T05:06:32;99118.16;;;15.94;100.00
74327;BME280;62745;51.060;13.786;2023-08-06T05:08:58;99118.03;;;15.79;100.00
74327;BME280;62745;51.060;13.786;2023-08-06T05:11:24;99116.53;;;15.93;100.00
74327;BME280;62745;51.060;13.786;2023-08-06T05:13:49;99120.94;;;16.00;100.00
74327;BME280;62745;51.060;13.786;2023-08-06T05:16:14;99122.84;;;16.04;100.00
74327;BME280;62745;51.060;13.786;2023-08-06T05:18:40;99115.28;;;16.01;100.00
74327;BME280;62745;51.060;13.786;2023-08-06T05:21:06;99106.28;;;15.90;100.00
74327;BME280;62745;51.060;13.786;2023-08-06T05:23:32;99111.00;;;16.05;100.00
74327;BME280;62745;51.060;13.786;2023-08-06T05:25:57;99119.13;;;16.10;100.00
74327;BME280;62745;51.060;13.786;2023-08-06T05:28:23;99111.38;;;16.14;100.00
74327;BME280;62745;51.060;13.786;2023-08-06T05:30:48;99114.88;;;16.14;100.00
74327;BME280;62745;51.060;13.786;2023-08-06T05:33:13;99108.41;;;16.15;100.00
74327;BME280;62745;51.060;13.786;2023-08-06T05:35:40;99087.13;;;16.14;100.00
74327;BME280;62745;51.060;13.786;2023-08-06T05:38:06;99099.56;;;16.20;100.00
74327;BME280;62745;51.060;13.786;2023-08-06T05:40:33;99093.38;;;16.24;100.00
74327;BME280;62745;51.060;13.786;2023-08-06T05:42:59;99094.72;;;16.22;100.00
74327;BME280;62745;51.060;13.786;2023-08-06T05:45:24;99085.56;;;16.23;100.00
74327;BME280;62745;51.060;13.786;2023-08-06T05:47:49;99086.16;;;16.30;100.00
74327;BME280;62745;51.060;13.786;2023-08-06T05:50:15;99089.97;;;16.34;100.00
74327;BME280;62745;51.060;13.786;2023-08-06T05:52:40;99101.03;;;16.38;100.00
74327;BME280;62745;51.060;13.786;2023-08-06T05:55:06;99092.69;;;16.39;100.00
74327;BME280;62745;51.060;13.786;2023-08-06T05:57:31;99093.22;;;16.36;100.00
74327;BME280;62745;51.060;13.786;2023-08-06T05:59:56;99099.44;;;16.42;100.00
74327;BME280;62745;51.060;13.786;2023-08-06T06:02:22;99092.66;;;16.34;100.00
74327;BME280;62745;51.060;13.786;2023-08-06T06:04:47;99108.16;;;16.49;100.00
74327;BME280;62745;51.060;13.786;2023-08-06T06:07:12;99086.53;;;16.44;100.00
74327;BME280;62745;51.060;13.786;2023-08-06T06:09:38;99096.00;;;16.46;100.00
74327;BME280;62745;51.060;13.786;2023-08-06T06:12:05;99093.34;;;16.57;100.00
74327;BME280;62745;51.060;13.786;2023-08-06T06:15:08;99099.28;;;16.59;100.00
74327;BME280;62745;51.060;13.786;2023-08-06T06:17:33;99100.88;;;16.49;100.00
74327;BME280;62745;51.060;13.786;2023-08-06T06:19:59;99101.97;;;16.53;100.00
74327;BME280;62745;51.060;13.786;2023-08-06T06:22:24;99100.09;;;16.59;100.00
74327;BME280;62745;51.060;13.786;2023-08-06T06:24:49;99097.41;;;16.59;100.00
74327;BME280;62745;51.060;13.786;2023-08-06T06:27:15;99094.31;;;16.77;100.00
74327;BME280;62745;51.060;13.786;2023-08-06T06:29:40;99091.97;;;16.86;100.00
74327;BME280;62745;51.060;13.786;2023-08-06T06:32:05;99094.66;;;16.91;100.00
74327;BME280;62745;51.060;13.786;2023-08-06T06:34:31;99081.72;;;16.93;100.00
74327;BME280;62745;51.060;13.786;2023-08-06T06:36:56;99079.34;;;17.02;100.00
74327;BME280;62745;51.060;13.786;2023-08-06T06:39:22;99071.47;;;16.95;100.00
74327;BME280;62745;51.060;13.786;2023-08-06T06:41:47;99087.72;;;17.05;100.00
74327;BME280;62745;51.060;13.786;2023-08-06T06:44:13;99081.28;;;17.11;100.00
74327;BME280;62745;51.060;13.786;2023-08-06T06:46:38;99089.91;;;17.08;100.00
74327;BME280;62745;51.060;13.786;2023-08-06T06:49:03;99085.91;;;17.16;100.00
74327;BME280;62745;51.060;13.786;2023-08-06T06:51:29;99083.47;;;17.20;100.00
74327;BME280;62745;51.060;13.786;2023-08-06T06:53:56;99090.22;;;17.22;100.00
74327;BME280;62745;51.060;13.786;2023-08-06T06:56:22;99088.59;;;17.16;100.00
74327;BME280;62745;51.060;13.786;2023-08-06T06:58:47;99100.78;;;17.29;100.00
74327;BME280;62745;51.060;13.786;2023-08-06T07:01:12;99099.16;;;17.23;100.00
74327;BME280;62745;51.060;13.786;2023-08-06T07:03:38;99098.03;;;17.13;100.00
74327;BME280;62745;51.060;13.786;2023-08-06T07:06:03;99097.84;;;17.35;100.00
74327;BME280;62745;51.060;13.786;2023-08-06T07:08:29;99107.03;;;17.39;100.00
74327;BME280;62745;51.060;13.786;2023-08-06T07:11:04;99102.19;;;17.41;100.00
74327;BME280;62745;51.060;13.786;2023-08-06T07:13:31;99110.56;;;17.45;100.00
74327;BME280;62745;51.060;13.786;2023-08-06T07:15:56;99105.22;;;17.60;100.00
74327;BME280;62745;51.060;13.786;2023-08-06T07:18:22;99114.88;;;17.41;100.00
74327;BME280;62745;51.060;13.786;2023-08-06T07:20:49;99107.38;;;17.58;100.00
74327;BME280;62745;51.060;13.786;2023-08-06T07:23:14;99096.34;;;17.65;100.00
74327;BME280;62745;51.060;13.786;2023-08-06T07:25:39;99109.88;;;17.80;100.00
74327;BME280;62745;51.060;13.786;2023-08-06T07:28:05;99099.00;;;17.60;100.00
74327;BME280;62745;51.060;13.786;2023-08-06T07:30:30;99101.69;;;17.60;100.00
74327;BME280;62745;51.060;13.786;2023-08-06T07:32:55;99103.84;;;17.58;100.00
74327;BME280;62745;51.060;13.786;2023-08-06T07:35:21;99093.84;;;17.48;100.00
74327;BME280;62745;51.060;13.786;2023-08-06T07:37:46;99093.06;;;17.58;100.00
74327;BME280;62745;51.060;13.786;2023-08-06T07:40:12;99100.81;;;17.39;100.00
74327;BME280;62745;51.060;13.786;2023-08-06T07:42:37;99107.16;;;17.07;100.00
74327;BME280;62745;51.060;13.786;2023-08-06T07:45:11;99082.78;;;16.87;100.00
74327;BME280;62745;51.060;13.786;2023-08-06T07:47:39;99067.03;;;16.69;100.00
74327;BME280;62745;51.060;13.786;2023-08-06T07:50:05;99054.31;;;16.64;100.00
74327;BME280;62745;51.060;13.786;2023-08-06T07:52:31;99017.47;;;16.38;100.00
74327;BME280;62745;51.060;13.786;2023-08-06T07:58:12;99019.44;;;16.47;100.00
74327;BME280;62745;51.060;13.786;2023-08-06T08:00:46;99017.78;;;16.41;100.00
74327;BME280;62745;51.060;13.786;2023-08-06T08:03:16;99016.66;;;16.32;100.00
74327;BME280;62745;51.060;13.786;2023-08-06T08:05:44;99073.94;;;16.54;100.00
74327;BME280;62745;51.060;13.786;2023-08-06T08:08:12;99043.78;;;16.20;100.00
74327;BME280;62745;51.060;13.786;2023-08-06T08:10:42;99045.09;;;16.18;100.00
74327;BME280;62745;51.060;13.786;2023-08-06T08:13:07;99034.84;;;16.15;100.00
74327;BME280;62745;51.060;13.786;2023-08-06T08:15:34;99072.56;;;16.47;100.00
74327;BME280;62745;51.060;13.786;2023-08-06T08:17:59;99077.41;;;16.50;100.00
74327;BME280;62745;51.060;13.786;2023-08-06T08:20:24;99078.28;;;16.61;100.00
74327;BME280;62745;51.060;13.786;2023-08-06T08:22:50;99076.38;;;16.61;100.00
74327;BME280;62745;51.060;13.786;2023-08-06T08:25:16;99064.78;;;16.61;100.00
74327;BME280;62745;51.060;13.786;2023-08-06T08:27:41;99056.22;;;16.64;100.00
74327;BME280;62745;51.060;13.786;2023-08-06T08:30:07;99068.94;;;16.68;100.00
74327;BME280;62745;51.060;13.786;2023-08-06T08:32:32;99060.59;;;16.75;100.00
74327;BME280;62745;51.060;13.786;2023-08-06T08:34:58;99050.81;;;16.64;100.00
74327;BME280;62745;51.060;13.786;2023-08-06T08:37:23;99054.16;;;16.39;100.00
74327;BME280;62745;51.060;13.786;2023-08-06T08:39:49;99053.09;;;16.45;100.00
74327;BME280;62745;51.060;13.786;2023-08-06T08:42:15;99049.03;;;16.42;100.00
74327;BME280;62745;51.060;13.786;2023-08-06T08:44:42;99047.41;;;16.36;100.00
74327;BME280;62745;51.060;13.786;2023-08-06T08:47:08;99046.22;;;16.22;100.00
74327;BME280;62745;51.060;13.786;2023-08-06T08:49:37;99047.72;;;16.08;100.00
74327;BME280;62745;51.060;13.786;2023-08-06T08:52:03;99042.97;;;16.20;100.00
74327;BME280;62745;51.060;13.786;2023-08-06T08:54:32;99041.16;;;16.31;100.00
74327;BME280;62745;51.060;13.786;2023-08-06T08:56:58;99039.13;;;16.48;100.00
74327;BME280;62745;51.060;13.786;2023-08-06T08:59:23;99039.41;;;16.51;100.00
74327;BME280;62745;51.060;13.786;2023-08-06T09:01:49;99029.38;;;16.42;100.00
74327;BME280;62745;51.060;13.786;2023-08-06T09:04:17;99029.25;;;16.64;100.00
74327;BME280;62745;51.060;13.786;2023-08-06T09:06:43;99031.13;;;16.63;100.00
74327;BME280;62745;51.060;13.786;2023-08-06T09:09:17;99026.63;;;16.79;100.00
74327;BME280;62745;51.060;13.786;2023-08-06T09:11:47;99037.56;;;16.62;100.00
74327;BME280;62745;51.060;13.786;2023-08-06T09:14:14;99031.03;;;16.48;100.00
74327;BME280;62745;51.060;13.786;2023-08-06T09:16:40;99026.34;;;16.33;100.00
74327;BME280;62745;51.060;13.786;2023-08-06T09:19:09;99029.56;;;16.30;100.00
74327;BME280;62745;51.060;13.786;2023-08-06T09:21:39;99033.09;;;16.31;100.00
74327;BME280;62745;51.060;13.786;2023-08-06T09:24:12;99026.91;;;16.35;100.00
74327;BME280;62745;51.060;13.786;2023-08-06T09:26:39;99029.31;;;16.32;100.00
74327;BME280;62745;51.060;13.786;2023-08-06T09:29:08;99024.84;;;16.52;100.00
74327;BME280;62745;51.060;13.786;2023-08-06T09:31:43;99022.50;;;16.66;100.00
74327;BME280;62745;51.060;13.786;2023-08-06T09:34:20;99019.88;;;16.71;100.00
74327;BME280;62745;51.060;13.786;2023-08-06T09:36:48;99027.03;;;16.61;100.00
74327;BME280;62745;51.060;13.786;2023-08-06T09:39:15;99029.72;;;16.55;100.00
74327;BME280;62745;51.060;13.786;2023-08-06T09:41:41;99025.03;;;16.41;100.00
74327;BME280;62745;51.060;13.786;2023-08-06T09:44:24;99026.66;;;16.42;100.00
74327;BME280;62745;51.060;13.786;2023-08-06T09:46:55;99019.63;;;16.36;100.00
74327;BME280;62745;51.060;13.786;2023-08-06T09:49:24;99022.09;;;16.42;100.00
74327;BME280;62745;51.060;13.786;2023-08-06T09:51:51;99013.63;;;16.66;100.00
74327;BME280;62745;51.060;13.786;2023-08-06T09:54:17;99009.06;;;16.71;100.00
74327;BME280;62745;51.060;13.786;2023-08-06T09:56:44;99002.88;;;16.76;100.00
74327;BME280;62745;51.060;13.786;2023-08-06T09:59:09;99000.84;;;16.98;100.00
74327;BME280;62745;51.060;13.786;2023-08-06T10:01:36;99001.06;;;16.87;100.00
74327;BME280;62745;51.060;13.786;2023-08-06T10:04:03;98997.53;;;16.86;100.00
74327;BME280;62745;51.060;13.786;2023-08-06T10:06:29;98993.84;;;17.07;100.00
74327;BME280;62745;51.060;13.786;2023-08-06T10:08:55;98997.97;;;17.30;100.00
74327;BME280;62745;51.060;13.786;2023-08-06T10:11:22;98994.69;;;17.28;100.00
74327;BME280;62745;51.060;13.786;2023-08-06T10:13:49;98993.38;;;17.31;100.00
74327;BME280;62745;51.060;13.786;2023-08-06T10:16:16;98990.69;;;17.31;100.00
74327;BME280;62745;51.060;13.786;2023-08-06T10:18:42;98989.03;;;17.30;100.00
74327;BME280;62745;51.060;13.786;2023-08-06T10:21:08;98985.50;;;17.19;100.00
74327;BME280;62745;51.060;13.786;2023-08-06T10:23:35;98980.91;;;17.14;100.00
74327;BME280;62745;51.060;13.786;2023-08-06T10:26:01;98979.84;;;17.21;100.00
74327;BME280;62745;51.060;13.786;2023-08-06T10:28:39;98975.53;;;17.25;100.00
74327;BME280;62745;51.060;13.786;2023-08-06T10:31:05;98980.19;;;17.50;100.00
74327;BME280;62745;51.060;13.786;2023-08-06T10:33:45;98971.81;;;17.56;100.00
74327;BME280;62745;51.060;13.786;2023-08-06T10:36:11;98970.44;;;17.59;100.00
74327;BME280;62745;51.060;13.786;2023-08-06T10:38:48;98965.88;;;17.95;100.00
74327;BME280;62745;51.060;13.786;2023-08-06T10:41:27;98960.72;;;18.14;100.00
74327;BME280;62745;51.060;13.786;2023-08-06T10:44:08;98958.00;;;18.14;100.00
74327;BME280;62745;51.060;13.786;2023-08-06T10:46:34;98950.47;;;18.06;100.00
74327;BME280;62745;51.060;13.786;2023-08-06T10:48:59;98944.78;;;18.12;100.00
74327;BME280;62745;51.060;13.786;2023-08-06T10:51:25;98954.78;;;18.17;100.00
74327;BME280;62745;51.060;13.786;2023-08-06T10:53:51;98948.59;;;18.06;100.00
74327;BME280;62745;51.060;13.786;2023-08-06T10:56:18;98942.31;;;18.36;100.00
74327;BME280;62745;51.060;13.786;2023-08-06T10:58:47;98940.44;;;18.31;100.00
74327;BME280;62745;51.060;13.786;2023-08-06T11:01:13;98936.13;;;18.95;100.00
74327;BME280;62745;51.060;13.786;2023-08-06T11:03:39;98928.88;;;18.85;100.00
74327;BME280;62745;51.060;13.786;2023-08-06T11:06:09;98936.72;;;19.31;100.00
74327;BME280;62745;51.060;13.786;2023-08-06T11:08:40;98937.69;;;19.50;100.00
74327;BME280;62745;51.060;13.786;2023-08-06T11:11:13;98935.56;;;19.42;100.00
74327;BME280;62745;51.060;13.786;2023-08-06T11:13:49;98927.09;;;19.15;100.00
74327;BME280;62745;51.060;13.786;2023-08-06T11:16:15;98930.72;;;19.39;100.00
74327;BME280;62745;51.060;13.786;2023-08-06T11:18:41;98930.59;;;18.66;100.00
74327;BME280;62745;51.060;13.786;2023-08-06T11:21:07;98926.31;;;18.50;100.00
74327;BME280;62745;51.060;13.786;2023-08-06T11:23:34;98917.88;;;18.56;100.00
74327;BME280;62745;51.060;13.786;2023-08-06T11:25:59;98918.94;;;18.71;100.00
74327;BME280;62745;51.060;13.786;2023-08-06T11:28:25;98914.66;;;18.65;100.00
74327;BME280;62745;51.060;13.786;2023-08-06T11:30:51;98908.97;;;18.66;100.00
74327;BME280;62745;51.060;13.786;2023-08-06T11:33:26;98912.41;;;18.82;100.00
74327;BME280;62745;51.060;13.786;2023-08-06T11:35:52;98909.22;;;19.14;100.00
74327;BME280;62745;51.060;13.786;2023-08-06T11:38:18;98907.25;;;19.24;100.00
74327;BME280;62745;51.060;13.786;2023-08-06T11:40:47;98910.22;;;18.79;98.55
74327;BME280;62745;51.060;13.786;2023-08-06T11:43:13;98911.94;;;18.54;98.16
74327;BME280;62745;51.060;13.786;2023-08-06T11:45:39;98920.13;;;18.39;100.00
74327;BME280;62745;51.060;13.786;2023-08-06T11:48:05;98915.78;;;18.38;99.25
74327;BME280;62745;51.060;13.786;2023-08-06T11:50:31;98910.91;;;18.50;99.77
74327;BME280;62745;51.060;13.786;2023-08-06T11:52:58;98908.72;;;18.52;100.00
74327;BME280;62745;51.060;13.786;2023-08-06T11:55:25;98911.66;;;18.66;100.00
74327;BME280;62745;51.060;13.786;2023-08-06T11:57:51;98907.69;;;18.98;100.00
74327;BME280;62745;51.060;13.786;2023-08-06T12:00:16;98908.38;;;19.18;100.00
74327;BME280;62745;51.060;13.786;2023-08-06T12:02:45;98917.16;;;19.39;99.02
74327;BME280;62745;51.060;13.786;2023-08-06T12:05:11;98912.94;;;18.84;97.31
74327;BME280;62745;51.060;13.786;2023-08-06T12:07:39;98915.41;;;18.75;95.78
74327;BME280;62745;51.060;13.786;2023-08-06T12:10:04;98910.31;;;18.69;96.80
74327;BME280;62745;51.060;13.786;2023-08-06T12:12:30;98911.38;;;18.57;94.74
74327;BME280;62745;51.060;13.786;2023-08-06T12:14:55;98907.44;;;18.34;95.65
74327;BME280;62745;51.060;13.786;2023-08-06T12:17:22;98907.88;;;18.57;96.25
74327;BME280;62745;51.060;13.786;2023-08-06T12:19:48;98903.47;;;18.81;98.14
74327;BME280;62745;51.060;13.786;2023-08-06T12:22:14;98903.88;;;19.04;98.90
74327;BME280;62745;51.060;13.786;2023-08-06T12:24:43;98906.72;;;19.22;97.34
74327;BME280;62745;51.060;13.786;2023-08-06T12:27:10;98900.97;;;19.34;99.30
74327;BME280;62745;51.060;13.786;2023-08-06T12:29:36;98905.59;;;19.68;99.63
74327;BME280;62745;51.060;13.786;2023-08-06T12:32:03;98895.16;;;19.80;96.62
74327;BME280;62745;51.060;13.786;2023-08-06T12:34:28;98899.75;;;19.50;93.94
74327;BME280;62745;51.060;13.786;2023-08-06T12:36:54;98898.22;;;19.00;95.80
74327;BME280;62745;51.060;13.786;2023-08-06T12:39:19;98895.53;;;19.00;97.61
74327;BME280;62745;51.060;13.786;2023-08-06T12:41:45;98893.94;;;18.89;95.27
74327;BME280;62745;51.060;13.786;2023-08-06T12:44:11;98888.81;;;18.87;94.71